createdAt,value
2019-03-26T00:02:29.942Z,6.75
2019-03-26T00:05:11.179Z,6.78
2019-03-26T00:07:51.584Z,6.80
2019-03-26T00:10:32.532Z,6.58
2019-03-26T00:13:13.814Z,7.05
2019-03-26T00:15:54.169Z,7.42
2019-03-26T00:18:34.926Z,7.17
2019-03-26T00:21:15.556Z,7.62
2019-03-26T00:23:56.244Z,7.70
2019-03-26T00:26:36.568Z,7.90
2019-03-26T00:29:16.964Z,7.65
2019-03-26T00:31:57.616Z,7.95
2019-03-26T00:34:38.411Z,7.87
2019-03-26T00:37:19.054Z,8.20
2019-03-26T00:39:59.926Z,8.10
2019-03-26T00:42:40.575Z,8.45
2019-03-26T00:45:21.256Z,8.63
2019-03-26T00:48:01.880Z,8.20
2019-03-26T00:50:42.719Z,7.95
2019-03-26T00:53:23.427Z,8.20
2019-03-26T00:56:04.286Z,8.50
2019-03-26T00:58:45.052Z,8.00
2019-03-26T01:01:25.961Z,7.95
2019-03-26T01:04:06.447Z,8.60
2019-03-26T01:06:47.565Z,8.48
2019-03-26T01:09:28.579Z,8.50
2019-03-26T01:12:09.441Z,7.95
2019-03-26T01:14:50.212Z,8.23
2019-03-26T01:17:30.776Z,8.33
2019-03-26T01:20:00.363Z,7.67
2019-03-26T01:22:48.899Z,8.10
2019-03-26T01:25:39.524Z,8.70
2019-03-26T01:28:27.133Z,7.78
2019-03-26T01:31:15.656Z,8.37
2019-03-26T01:34:04.307Z,8.00
2019-03-26T01:36:52.848Z,8.30
2019-03-26T01:39:41.333Z,7.70
2019-03-26T01:42:29.618Z,7.70
2019-03-26T01:45:17.848Z,8.33
2019-03-26T01:48:06.180Z,7.85
2019-03-26T01:50:35.431Z,8.13
2019-03-26T01:53:23.694Z,8.75
2019-03-26T01:56:12.232Z,8.93
2019-03-26T01:58:53.368Z,8.80
2019-03-26T02:01:34.405Z,8.13
2019-03-26T02:04:15.103Z,8.58
2019-03-26T02:06:55.820Z,8.45
2019-03-26T02:09:36.795Z,8.85
2019-03-26T02:12:17.797Z,8.65
2019-03-26T02:14:58.556Z,8.90
2019-03-26T02:17:39.902Z,8.63
2019-03-26T02:20:21.193Z,9.18
2019-03-26T02:23:01.617Z,9.17
2019-03-26T02:25:42.770Z,9.45
2019-03-26T02:28:23.461Z,9.70
2019-03-26T02:31:04.209Z,10.32
2019-03-26T02:33:45.010Z,9.40
2019-03-26T02:36:25.719Z,8.98
2019-03-26T02:39:06.257Z,9.60
2019-03-26T02:41:47.070Z,9.67
2019-03-26T02:44:27.633Z,10.07
2019-03-26T02:47:07.930Z,10.15
2019-03-26T02:49:48.465Z,10.13
2019-03-26T02:52:29.559Z,10.40
2019-03-26T02:55:10.882Z,10.90
2019-03-26T02:57:51.805Z,10.43
2019-03-26T03:00:32.593Z,10.53
2019-03-26T03:03:13.207Z,10.10
2019-03-26T03:05:53.641Z,9.53
2019-03-26T03:08:34.387Z,9.83
2019-03-26T03:11:15.778Z,9.65
2019-03-26T03:13:56.454Z,9.67
2019-03-26T03:16:37.203Z,9.45
2019-03-26T03:19:17.648Z,8.33
2019-03-26T03:21:58.477Z,8.90
2019-03-26T03:24:39.109Z,8.80
2019-03-26T03:27:19.799Z,8.80
2019-03-26T03:30:00.837Z,8.55
2019-03-26T03:32:41.294Z,9.00
2019-03-26T03:35:22.720Z,9.03
2019-03-26T03:38:03.217Z,9.03
2019-03-26T03:40:44.302Z,9.43
2019-03-26T03:43:25.627Z,9.43
2019-03-26T03:45:55.404Z,9.90
2019-03-26T03:48:44.372Z,8.90
2019-03-26T03:51:53.488Z,9.40
2019-03-26T03:57:52.722Z,9.23
2019-03-26T04:00:32.069Z,9.63
2019-03-26T04:03:12.817Z,9.20
2019-03-26T04:06:08.094Z,9.65
2019-03-26T04:08:37.133Z,9.75
2019-03-26T04:11:18.454Z,10.50
2019-03-26T04:13:59.192Z,10.18
2019-03-26T04:16:39.847Z,10.50
2019-03-26T04:19:21.097Z,9.73
2019-03-26T04:22:01.637Z,10.00
2019-03-26T04:24:42.518Z,10.32
2019-03-26T04:27:23.365Z,10.75
2019-03-26T04:30:04.237Z,10.88
2019-03-26T04:32:44.875Z,10.82
2019-03-26T04:35:25.534Z,10.28
2019-03-26T04:38:06.097Z,9.50
2019-03-26T04:40:46.945Z,10.08
2019-03-26T04:43:27.835Z,9.48
2019-03-26T04:46:08.603Z,10.97
2019-03-26T04:48:49.513Z,10.40
2019-03-26T04:51:30.057Z,12.00
2019-03-26T04:54:10.469Z,12.70
2019-03-26T04:56:51.323Z,11.90
2019-03-26T04:59:31.651Z,12.82
2019-03-26T05:02:12.553Z,13.38
2019-03-26T05:04:53.462Z,12.82
2019-03-26T05:07:33.871Z,14.73
2019-03-26T05:10:14.234Z,13.98
2019-03-26T05:12:55.306Z,13.90
2019-03-26T05:15:35.775Z,13.78
2019-03-26T05:18:16.468Z,13.20
2019-03-26T05:20:57.328Z,13.60
2019-03-26T05:23:38.242Z,13.30
2019-03-26T05:26:19.200Z,13.03
2019-03-26T05:29:00.299Z,12.50
2019-03-26T05:31:40.926Z,12.43
2019-03-26T05:34:22.049Z,13.13
2019-03-26T05:37:02.958Z,12.43
2019-03-26T05:39:43.959Z,12.05
2019-03-26T05:42:25.313Z,12.53
2019-03-26T05:44:54.999Z,12.40
2019-03-26T05:47:24.707Z,11.83
2019-03-26T05:49:54.137Z,11.40
2019-03-26T05:52:23.946Z,11.73
2019-03-26T05:54:53.560Z,12.40
2019-03-26T05:57:22.901Z,12.18
2019-03-26T05:59:52.221Z,12.25
2019-03-26T06:02:22.235Z,11.80
2019-03-26T06:04:51.700Z,12.35
2019-03-26T06:07:21.686Z,12.28
2019-03-26T06:09:51.265Z,11.90
2019-03-26T06:12:20.606Z,11.55
2019-03-26T06:14:49.939Z,12.25
2019-03-26T06:17:19.273Z,13.57
2019-03-26T06:19:48.684Z,14.58
2019-03-26T06:22:18.125Z,13.25
2019-03-26T06:24:47.801Z,12.65
2019-03-26T06:27:17.356Z,12.45
2019-03-26T06:29:46.667Z,12.75
2019-03-26T06:32:16.283Z,12.50
2019-03-26T06:34:45.709Z,12.00
2019-03-26T06:37:18.011Z,12.23
2019-03-26T06:39:46.828Z,12.78
2019-03-26T06:42:16.143Z,12.15
2019-03-26T06:44:45.468Z,12.28
2019-03-26T06:47:14.779Z,12.10
2019-03-26T06:49:44.553Z,11.93
2019-03-26T06:52:14.180Z,17.37
2019-03-26T06:54:43.576Z,16.87
2019-03-26T06:57:12.999Z,16.62
2019-03-26T06:59:42.631Z,17.45
2019-03-26T07:02:12.435Z,19.62
2019-03-26T07:04:46.598Z,18.63
2019-03-26T07:07:16.845Z,17.48
2019-03-26T07:09:46.152Z,16.27
2019-03-26T07:12:15.664Z,16.62
2019-03-26T07:14:44.971Z,15.95
2019-03-26T07:17:14.285Z,15.55
2019-03-26T07:19:43.946Z,15.85
2019-03-26T07:22:13.504Z,13.60
2019-03-26T07:24:43.151Z,15.73
2019-03-26T07:27:12.891Z,14.30
2019-03-26T07:29:42.279Z,14.25
2019-03-26T07:32:11.669Z,11.67
2019-03-26T07:34:41.091Z,11.95
2019-03-26T07:37:10.527Z,10.43
2019-03-26T07:39:40.109Z,10.58
2019-03-26T07:42:09.837Z,9.63
2019-03-26T07:44:39.187Z,9.45
2019-03-26T07:47:09.056Z,8.60
2019-03-26T07:49:38.799Z,8.67
2019-03-26T07:52:08.437Z,8.63
2019-03-26T07:54:37.787Z,8.45
2019-03-26T07:57:07.433Z,8.10
2019-03-26T07:59:36.739Z,7.10
2019-03-26T08:02:06.433Z,6.62
2019-03-26T08:04:36.048Z,7.60
2019-03-26T08:07:05.487Z,8.23
2019-03-26T08:09:34.935Z,8.00
2019-03-26T08:12:04.437Z,7.70
2019-03-26T08:14:33.767Z,7.90
2019-03-26T08:17:03.147Z,7.72
2019-03-26T08:19:32.582Z,7.92
2019-03-26T08:22:01.936Z,6.45
2019-03-26T08:24:31.294Z,6.08
2019-03-26T08:27:00.601Z,5.83
2019-03-26T08:29:30.478Z,6.45
2019-03-26T08:32:00.118Z,6.63
2019-03-26T08:34:29.469Z,6.30
2019-03-26T08:36:58.899Z,5.97
2019-03-26T08:39:28.527Z,5.90
2019-03-26T08:41:57.916Z,6.20
2019-03-26T08:44:46.172Z,6.63
2019-03-26T08:47:15.759Z,6.30
2019-03-26T08:49:45.081Z,6.42
2019-03-26T08:52:14.876Z,6.50
2019-03-26T08:54:44.180Z,6.65
2019-03-26T08:57:13.502Z,6.90
2019-03-26T08:59:42.941Z,7.05
2019-03-26T09:02:12.874Z,7.60
2019-03-26T09:04:42.229Z,8.08
2019-03-26T09:07:12.072Z,7.37
2019-03-26T09:09:41.783Z,7.62
2019-03-26T09:12:11.157Z,8.30
2019-03-26T09:14:40.485Z,8.30
2019-03-26T09:17:10.100Z,8.28
2019-03-26T09:19:39.463Z,8.83
2019-03-26T09:22:08.830Z,8.63
2019-03-26T09:24:38.189Z,9.55
2019-03-26T09:27:07.797Z,10.75
2019-03-26T09:29:37.421Z,11.40
2019-03-26T09:32:06.722Z,12.40
2019-03-26T09:34:36.051Z,13.50
2019-03-26T09:37:06.851Z,13.00
2019-03-26T09:39:38.372Z,14.25
2019-03-26T09:42:07.469Z,14.58
2019-03-26T09:44:37.039Z,15.78
2019-03-26T09:47:15.995Z,15.95
2019-03-26T09:49:37.547Z,16.25
2019-03-26T09:52:06.985Z,16.73
2019-03-26T09:54:36.305Z,17.12
2019-03-26T09:57:05.704Z,17.37
2019-03-26T09:59:35.110Z,18.70
2019-03-26T10:02:04.741Z,19.25
2019-03-26T10:04:34.048Z,19.30
2019-03-26T10:07:03.524Z,20.35
2019-03-26T10:09:32.844Z,19.42
2019-03-26T10:12:02.502Z,20.45
2019-03-26T10:14:31.936Z,20.40
2019-03-26T10:17:01.635Z,20.80
2019-03-26T10:19:30.951Z,20.67
2019-03-26T10:22:00.375Z,20.02
2019-03-26T10:24:29.796Z,20.68
2019-03-26T10:26:59.100Z,21.05
2019-03-26T10:29:30.558Z,20.62
2019-03-26T10:31:59.934Z,19.82
2019-03-26T10:34:29.311Z,20.40
2019-03-26T10:36:58.705Z,19.17
2019-03-26T10:39:27.998Z,19.60
2019-03-26T10:41:57.381Z,19.82
2019-03-26T10:44:26.679Z,19.40
2019-03-26T10:46:55.997Z,17.30
2019-03-26T10:49:25.345Z,16.70
2019-03-26T10:51:54.704Z,17.48
2019-03-26T10:54:24.017Z,16.67
2019-03-26T10:56:53.327Z,16.25
2019-03-26T10:59:22.669Z,16.67
2019-03-26T11:01:52.079Z,16.73
2019-03-26T11:04:22.745Z,16.80
2019-03-26T11:06:52.070Z,16.60
2019-03-26T11:09:26.958Z,15.65
2019-03-26T11:11:52.464Z,16.35
2019-03-26T11:14:22.278Z,16.75
2019-03-26T11:16:51.707Z,17.00
2019-03-26T11:19:21.012Z,16.67
2019-03-26T11:21:50.386Z,15.95
2019-03-26T11:24:19.903Z,15.90
2019-03-26T11:26:49.339Z,16.30
2019-03-26T11:29:18.670Z,15.63
2019-03-26T11:31:48.240Z,15.20
2019-03-26T11:34:17.611Z,15.83
2019-03-26T11:36:46.934Z,16.17
2019-03-26T11:39:16.509Z,15.08
2019-03-26T11:41:45.816Z,16.32
2019-03-26T11:44:15.150Z,15.63
2019-03-26T11:46:44.549Z,16.30
2019-03-26T11:49:14.262Z,16.90
2019-03-26T11:51:43.564Z,16.50
2019-03-26T11:54:12.900Z,15.60
2019-03-26T11:56:42.564Z,15.65
2019-03-26T11:59:12.773Z,15.45
2019-03-26T12:01:42.189Z,16.12
2019-03-26T12:04:11.509Z,16.12
2019-03-26T12:06:40.864Z,15.43
2019-03-26T12:09:10.456Z,15.65
2019-03-26T12:11:40.400Z,16.03
2019-03-26T12:14:09.777Z,15.50
2019-03-26T12:16:39.628Z,15.63
2019-03-26T12:19:09.410Z,17.05
2019-03-26T12:21:38.884Z,16.25
2019-03-26T12:24:08.341Z,15.77
2019-03-26T12:26:37.810Z,16.27
2019-03-26T12:29:07.523Z,15.25
2019-03-26T12:31:37.078Z,15.15
2019-03-26T12:34:06.535Z,14.73
2019-03-26T12:36:40.245Z,14.18
2019-03-26T12:39:09.135Z,14.00
2019-03-26T12:41:38.774Z,13.43
2019-03-26T12:44:08.143Z,14.25
2019-03-26T12:46:37.548Z,12.88
2019-03-26T12:49:06.985Z,13.25
2019-03-26T12:51:39.160Z,14.00
2019-03-26T12:54:07.461Z,13.08
2019-03-26T12:56:36.885Z,14.27
2019-03-26T12:59:06.367Z,12.30
2019-03-26T13:01:35.954Z,10.95
2019-03-26T13:04:12.575Z,8.93
2019-03-26T13:06:36.327Z,8.53
2019-03-26T13:09:08.447Z,8.95
2019-03-26T13:11:38.153Z,9.30
2019-03-26T13:14:07.539Z,8.75
2019-03-26T13:16:37.049Z,9.00
2019-03-26T13:19:06.504Z,8.70
2019-03-26T13:21:37.533Z,8.43
2019-03-26T13:24:07.156Z,9.58
2019-03-26T13:26:36.488Z,8.90
2019-03-26T13:29:05.942Z,9.15
2019-03-26T13:31:35.837Z,8.60
2019-03-26T13:34:05.376Z,8.88
2019-03-26T13:36:35.358Z,9.25
2019-03-26T13:39:07.095Z,8.70
2019-03-26T13:41:36.845Z,9.38
2019-03-26T13:44:06.247Z,9.03
2019-03-26T13:46:35.694Z,8.43
2019-03-26T13:49:05.410Z,8.20
2019-03-26T13:51:37.199Z,8.10
2019-03-26T13:54:06.031Z,8.05
2019-03-26T13:56:35.675Z,7.55
2019-03-26T13:59:05.179Z,6.87
2019-03-26T14:01:34.583Z,7.27
2019-03-26T14:04:03.980Z,6.83
2019-03-26T14:06:33.321Z,6.53
2019-03-26T14:09:03.662Z,6.70
2019-03-26T14:11:33.653Z,5.80
2019-03-26T14:14:03.012Z,6.40
2019-03-26T14:16:32.445Z,6.08
2019-03-26T14:19:01.862Z,5.83
2019-03-26T14:21:31.137Z,5.42
2019-03-26T14:24:00.557Z,5.40
2019-03-26T14:26:29.892Z,5.05
2019-03-26T14:28:59.319Z,5.20
2019-03-26T14:31:30.289Z,5.08
2019-03-26T14:34:00.668Z,5.05
2019-03-26T14:36:30.404Z,5.37
2019-03-26T14:39:00.043Z,4.70
2019-03-26T14:41:30.508Z,4.45
2019-03-26T14:44:00.068Z,4.50
2019-03-26T14:46:29.490Z,5.05
2019-03-26T14:48:59.123Z,4.60
2019-03-26T14:51:28.502Z,5.10
2019-03-26T14:53:57.939Z,5.07
2019-03-26T14:56:27.304Z,5.00
2019-03-26T14:58:56.629Z,5.10
2019-03-26T15:01:25.978Z,4.90
2019-03-26T15:03:55.653Z,4.67
2019-03-26T15:06:25.373Z,4.92
2019-03-26T15:08:54.716Z,5.00
2019-03-26T15:11:24.523Z,5.65
2019-03-26T15:13:54.261Z,5.17
2019-03-26T15:16:23.892Z,6.00
2019-03-26T15:18:53.285Z,6.00
2019-03-26T15:21:22.681Z,5.60
2019-03-26T15:23:52.036Z,5.65
2019-03-26T15:26:21.594Z,6.00
2019-03-26T15:28:51.034Z,6.08
2019-03-26T15:31:20.418Z,6.12
2019-03-26T15:33:49.725Z,6.42
2019-03-26T15:36:19.166Z,6.60
2019-03-26T15:38:48.568Z,6.50
2019-03-26T15:41:21.910Z,7.00
2019-03-26T15:43:48.897Z,7.10
2019-03-26T15:46:18.577Z,6.72
2019-03-26T15:48:48.260Z,7.40
2019-03-26T15:51:17.778Z,7.05
2019-03-26T15:53:47.097Z,7.22
2019-03-26T15:56:16.493Z,6.92
2019-03-26T15:58:46.091Z,7.33
2019-03-26T16:01:15.507Z,7.30
2019-03-26T16:03:44.926Z,7.08
2019-03-26T16:06:14.242Z,7.80
2019-03-26T16:08:43.611Z,7.55
2019-03-26T16:11:13.324Z,7.90
2019-03-26T16:13:42.824Z,7.67
2019-03-26T16:16:12.132Z,7.78
2019-03-26T16:18:41.427Z,8.00
2019-03-26T16:21:10.820Z,7.58
2019-03-26T16:23:40.428Z,7.87
2019-03-26T16:28:50.305Z,8.08
2019-03-26T16:31:20.048Z,8.25
2019-03-26T16:33:49.672Z,8.30
2019-03-26T16:36:19.120Z,9.25
2019-03-26T16:38:48.510Z,9.10
2019-03-26T16:41:17.859Z,9.58
2019-03-26T16:43:47.168Z,10.03
2019-03-26T16:46:16.501Z,11.03
2019-03-26T16:48:45.909Z,10.35
2019-03-26T16:51:15.333Z,10.83
2019-03-26T16:53:44.660Z,11.10
2019-03-26T16:56:14.434Z,10.38
2019-03-26T16:58:43.775Z,10.32
2019-03-26T17:01:13.355Z,10.30
2019-03-26T17:03:43.467Z,10.03
2019-03-26T17:06:12.807Z,10.32
2019-03-26T17:08:42.353Z,9.63
2019-03-26T17:11:12.033Z,9.93
2019-03-26T17:13:41.405Z,9.70
2019-03-26T17:16:10.742Z,9.38
2019-03-26T17:18:40.068Z,9.30
2019-03-26T17:21:09.387Z,9.25
2019-03-26T17:23:39.713Z,9.80
2019-03-26T17:26:09.632Z,9.10
2019-03-26T17:28:39.071Z,9.40
2019-03-26T17:31:08.728Z,9.75
2019-03-26T17:33:38.171Z,9.15
2019-03-26T17:36:07.604Z,9.30
2019-03-26T17:38:37.095Z,9.75
2019-03-26T17:41:06.506Z,10.00
2019-03-26T17:43:35.884Z,9.00
2019-03-26T17:46:05.283Z,9.20
2019-03-26T17:48:35.021Z,9.20
2019-03-26T17:51:04.600Z,9.30
2019-03-26T17:53:34.004Z,9.33
2019-03-26T17:56:03.405Z,9.23
2019-03-26T17:58:32.801Z,9.20
2019-03-26T18:01:02.119Z,9.00
2019-03-26T18:03:31.675Z,9.10
2019-03-26T18:06:01.106Z,8.75
2019-03-26T18:08:30.429Z,8.80
2019-03-26T18:11:00.304Z,9.10
2019-03-26T18:13:29.991Z,9.00
2019-03-26T18:16:00.169Z,8.30
2019-03-26T18:18:29.595Z,9.10
2019-03-26T18:20:59.034Z,9.18
2019-03-26T18:23:28.812Z,9.10
2019-03-26T18:25:58.550Z,8.93
2019-03-26T18:28:28.089Z,8.83
2019-03-26T18:30:57.860Z,9.23
2019-03-26T18:33:30.376Z,9.27
2019-03-26T18:36:00.500Z,9.98
2019-03-26T18:38:29.833Z,9.73
2019-03-26T18:40:59.183Z,10.03
2019-03-26T18:43:29.033Z,9.28
2019-03-26T18:46:01.337Z,9.60
2019-03-26T18:48:31.091Z,9.70
2019-03-26T18:51:00.419Z,9.63
2019-03-26T18:53:29.928Z,9.73
2019-03-26T18:55:59.240Z,9.53
2019-03-26T18:58:29.176Z,9.78
2019-03-26T19:00:58.988Z,9.33
2019-03-26T19:03:28.323Z,10.05
2019-03-26T19:05:57.823Z,9.78
2019-03-26T19:08:27.132Z,10.28
2019-03-26T19:10:56.462Z,10.68
2019-03-26T19:13:25.765Z,11.10
2019-03-26T19:15:59.239Z,11.22
2019-03-26T19:18:35.080Z,11.28
2019-03-26T19:21:04.596Z,11.63
2019-03-26T19:24:38.380Z,11.00
2019-03-26T19:27:12.188Z,12.15
2019-03-26T19:29:43.815Z,11.85
2019-03-26T19:32:13.748Z,12.95
2019-03-26T19:34:43.465Z,13.30
2019-03-26T19:37:12.945Z,14.15
2019-03-26T19:39:43.203Z,14.10
2019-03-26T19:42:12.619Z,13.50
2019-03-26T19:44:42.453Z,13.28
2019-03-26T19:47:12.155Z,14.07
2019-03-26T19:49:41.923Z,13.60
2019-03-26T19:52:11.908Z,13.53
2019-03-26T19:54:41.556Z,13.88
2019-03-26T19:57:11.161Z,13.70
2019-03-26T19:59:40.601Z,13.80
2019-03-26T20:02:10.267Z,13.90
2019-03-26T20:04:39.796Z,14.13
2019-03-26T20:07:09.092Z,13.95
2019-03-26T20:09:38.549Z,13.93
2019-03-26T20:12:07.990Z,13.70
2019-03-26T20:14:37.404Z,14.50
2019-03-26T20:17:06.814Z,14.20
2019-03-26T20:19:36.489Z,13.67
2019-03-26T20:22:06.598Z,14.00
2019-03-26T20:24:36.019Z,13.93
2019-03-26T20:27:05.911Z,14.73
2019-03-26T20:29:35.287Z,15.43
2019-03-26T20:32:04.735Z,16.35
2019-03-26T20:34:34.145Z,16.87
2019-03-26T20:37:03.531Z,17.37
2019-03-26T20:39:33.068Z,17.33
2019-03-26T20:42:02.590Z,17.25
2019-03-26T20:44:31.984Z,17.42
2019-03-26T20:47:01.324Z,17.70
2019-03-26T20:49:30.817Z,16.77
2019-03-26T20:52:00.176Z,16.95
2019-03-26T20:54:29.646Z,16.73
2019-03-26T20:56:59.253Z,16.60
2019-03-26T20:59:28.599Z,16.87
2019-03-26T21:01:58.058Z,18.12
2019-03-26T21:04:27.396Z,17.35
2019-03-26T21:06:56.753Z,17.27
2019-03-26T21:09:26.298Z,19.02
2019-03-26T21:11:55.714Z,18.85
2019-03-26T21:14:25.139Z,17.87
2019-03-26T21:16:54.460Z,18.42
2019-03-26T21:19:24.089Z,17.98
2019-03-26T21:21:53.484Z,18.95
2019-03-26T21:24:22.880Z,18.70
2019-03-26T21:26:52.211Z,18.20
2019-03-26T21:29:21.532Z,18.02
2019-03-26T21:31:50.838Z,17.83
2019-03-26T21:34:29.860Z,17.82
2019-03-26T21:36:51.376Z,18.48
2019-03-26T21:39:20.671Z,18.07
2019-03-26T21:41:50.093Z,18.62
2019-03-26T21:44:19.537Z,18.95
2019-03-26T21:46:49.245Z,19.50
2019-03-26T21:49:18.536Z,17.77
2019-03-26T21:51:48.120Z,18.07
2019-03-26T21:54:17.731Z,18.73
2019-03-26T21:56:47.097Z,18.55
2019-03-26T21:59:16.403Z,19.17
2019-03-26T22:01:45.807Z,18.52
2019-03-26T22:04:15.094Z,17.82
2019-03-26T22:06:44.476Z,18.77
2019-03-26T22:09:13.808Z,18.02
2019-03-26T22:11:49.819Z,19.02
2019-03-26T22:14:18.401Z,18.87
2019-03-26T22:16:45.610Z,18.95
2019-03-26T22:19:27.773Z,19.20
2019-03-26T22:21:46.620Z,19.20
2019-03-26T22:24:17.229Z,18.05
2019-03-26T22:26:47.020Z,18.05
2019-03-26T22:29:16.332Z,20.37
2019-03-26T22:31:45.934Z,20.10
2019-03-26T22:34:15.547Z,20.05
2019-03-26T22:36:44.930Z,19.20
2019-03-26T22:39:14.251Z,20.05
2019-03-26T22:41:44.114Z,20.02
2019-03-26T22:44:13.509Z,20.15
2019-03-26T22:46:42.988Z,20.17
2019-03-26T22:49:12.322Z,20.95
2019-03-26T22:51:41.614Z,20.75
2019-03-26T22:54:11.041Z,20.43
2019-03-26T22:56:40.412Z,19.65
2019-03-26T22:59:10.077Z,20.25
2019-03-26T23:01:39.537Z,21.17
2019-03-26T23:04:08.980Z,20.60
2019-03-26T23:06:38.361Z,21.33
2019-03-26T23:09:08.096Z,20.68
2019-03-26T23:11:37.403Z,19.90
2019-03-26T23:14:06.809Z,20.88
2019-03-26T23:16:36.608Z,20.17
2019-03-26T23:19:06.520Z,20.17
2019-03-26T23:21:35.918Z,20.05
2019-03-26T23:24:05.463Z,19.70
2019-03-26T23:26:34.884Z,20.23
2019-03-26T23:29:07.789Z,20.93
2019-03-26T23:31:36.292Z,21.12
2019-03-26T23:34:05.739Z,21.00
2019-03-26T23:36:35.053Z,21.30
2019-03-26T23:39:05.779Z,21.52
2019-03-26T23:41:35.108Z,20.97
2019-03-26T23:44:04.522Z,21.62
2019-03-26T23:46:33.871Z,21.70
2019-03-26T23:49:03.190Z,21.07
2019-03-26T23:51:32.875Z,20.95
2019-03-26T23:54:02.440Z,22.20
2019-03-26T23:56:31.743Z,21.10
2019-03-26T23:59:01.106Z,22.22
